大分空港

2014/12/24

築城帰り 大分空港 2014/12/1 mon

12月に入って築城に出かけた。今回九州入りは、成田から大分へ。中津泊で行動したが、その帰路の大分空港。

RJFO 010000Z VRB04KT 9999 FEW025 SCT050 16/09 Q1007

20141201_rjfo_00rjfo

ホーバーが無くなって、あんまり特徴もない大分空港

20141201_rjfo_01rjfo

ただ、就航エアラインは多く、ターミナルには行灯が並ぶ。

20141201_rjfo_02ja655j

送迎デッキは、ターミナル北側。無料だが、意味の無いワイヤー張りで、使えない。

20141201_rjfo_03ja615a

ANA191 RJTT-RJFO JA615A B767-381ER

20141201_rjfo_04ja06rj

仕方が無いので、エプロン脇でフェンス越しにIBEX

20141201_rjfo_05ja06rj

IBX42 RJFO-RJOO JA06RJ CRJ-702ER

RJFO 010100Z 28010KT 240V310 9999 FEW025 BKN050 16/08 Q1007

20141201_rjfo_06ja4020

JA4020 C172 KAK

20141201_rjfo_07ja225j

JAL2361 RJOO-RJFO JA225J ERJ-170STD

20141201_rjfo_08ja655j

JAL1784 RJFO-RJTT JA655J B767-346ER

RJFO 010200Z 30009G19KT 250V340 9999 FEW020 SCT035 15/07 Q1007

20141201_rjfo_09ja15jj

JJP600 RJFO-RJAA JA15JJ A320-232

成田へはジェットスター

20141201_rjfo_10ja15jjrw01

離陸はRW01から

20141201_rjfo_11ja15jjrjok

途中ゲットできたのは、高知空港だけだった。

20141201_rjfo_12ja15jjrjaa

成田はRW16L着

天候が悪く、あまり収穫は無かった。

| | コメント (1) | トラックバック (0)

2005/10/03

空点描 小松-那覇 JTA031 2005/10/1

JALのマイレージを利用して、福岡に行くのにわざわざ那覇に寄り道とて出かけました。前線と台風の影響でところどころに雲がある場所がありましたが、九州は特によく見ることができました。空撮できた空港をご覧ください

20051001_JTA031_iwami 小松からそのままダイレクトに美保に向かって日本海を飛びます。出雲空港も見ることができますが、雲がかかって撮影は不可でした。もう広島上空に係るころの石見空港です。

20051001_JTA031_oita 美保からは中国地方を横断して、岩国、大分と南へ下がっていきます。今回一番よく見れた大分空港です。

 

 

20051001_JTA031_newkitakyusyu20051001_JTA031_tsuiki 岩国から大分までの間に、周防灘にある空港が一望できます。左は、来年早々開港の新北九州空港、そこから南にすぐの航空自衛隊築城飛行場 宇部山口空港も見えていましたが、写真ではよく確認できないので割愛します。 

20051001_JTA031_kumamoto 九州本島の上空に乗るころには、九州地方の空港がよく見えます。これは熊本空港 肉眼では、福岡、長崎、佐賀の存在が確認できました。 

 

20051001_JTA031_kaseda これは、鹿児島県西部にある航空局の加世田レーダーです。もし右席であれば、鹿児島空港が見えていました。

 

 

20051001_JTA031_iejima 大分から鹿児島そのて沖縄のゲートとなる沖永良部と飛んでいきます。左側であれば、鹿児島のあと島の空港が見えると思われますが、島の上だけ雲がかかっていたようです。これは、与論島上空ぐらいから見える伊江島です。3本の滑走路がよく見えます。

20051001_JTA031_JA8932 今回の乗機 JTA031 RJNK-ROAH B734 JA8932

| | コメント (0) | トラックバック (0)

その他のカテゴリー

BI Boading record aircraft Boading record ship FlightTracking lighthouse NAVAIDS RJNT LOG SKY MASSAGE US NAVY USMC うみ おか そら てつ アクシデント エアロック チーム室屋 三沢飛行場 上五島空港 下地島空港 下総飛行場 与那国空港 中標津空港 中部国際空港 久米島空港 五島福江空港 仙台空港 伊江島空港 但馬空港 佐賀空港 入間飛行場 八尾空港 八戸飛行場 出雲空港 函館空港 利尻空港 北九州空港 十勝飛行場 千歳飛行場 博物館 厚木飛行場 名古屋飛行場 喜界空港 嘉手納飛行場 場外 壱岐空港 大分空港 大湊飛行場 大阪国際空港 大館能代空港 天草空港 奄美空港 奥尻空港 宇部山口空港 宇都宮飛行場 宮古空港 宮崎空港 富山空港 小松島飛行場 小松飛行場 屋久島空港 山形空港 岐阜飛行場 岡山空港 岩国飛行場 帯広空港 広島空港 庄内空港 徳之島空港 徳島飛行場 成田国際空港 新潟空港 新田原飛行場 旭川空港 旭川飛行場 明野飛行場 普天間飛行場 木更津飛行場 札幌飛行場 東京国際空港 松山空港 松島飛行場 松本空港 横田飛行場 沖永良部空港 波照間空港 浜松飛行場 海上保安庁 海上自衛隊 海外 熊本空港 百里飛行場 相馬原飛行場 石垣空港 石見空港 礼文空港 神戸空港 福井空港 福岡空港 福島空港 秋田空港 種子島空港 空撮 立川飛行場 築城飛行場 美保飛行場 能登空港 舞鶴飛行場 航空自衛隊 芦屋飛行場 花巻空港 調布飛行場 警務消防 那覇空港 釧路空港 長崎空港 関西国際空港 陸上自衛隊 隠岐空港 霞ヶ浦飛行場 霞目飛行場 青森空港 静岡空港 静浜飛行場 飛行場跡 飛行船 鹿児島空港 鹿屋飛行場